Big Rapids, Michigan
Current Conditions -  °F | °C
As of 3:35 PM on Monday 22 Dec 2014 (Local Time) from KRQB Reporting Station
Overcast Overcast  
Wind Chill: 27°   Ceiling: 6000
Heat Index: 34°   Visibility: 7mi
Dew Point: 29°   Wind: 9mph
Humidity: 82%   Direction: 120°ESE
Pressure: 29.89"   Gusts: NA
Location:  43.7°N, 85.48°W
Report Text: KRQB 222035Z AUTO 12008KT 7SM OVC060 01/M02 A2989 RMK AO2 T00111016
Loading
Personal Weather Stations






























Interactive Weather Map New forecast layout! Learn more

10-Day Weather Forecast

Advertisements
Track Severe Weather on mobile